Time;durP1;ratioP1;P1;durP2;ratioP2;P2;SDS_P1;SDS_P2;PMS_P1;PMS_P2;Temp;Humidity;BMP_temperature;BMP_pressure;BME280_temperature;BME280_humidity;BME280_pressure;Samples;Min_cycle;Max_cycle;Signal;HPM_P1;HPM_P2
2022/12/31 00:00:39;;;;;;;6.40;2.77;;;;;;;11.53;100.00;100180.06;4915885;29;20087;-79
2022/12/31 00:03:08;;;;;;;4.35;2.58;;;;;;;11.53;100.00;100169.19;4915694;29;20024;-80
2022/12/31 00:05:35;;;;;;;5.15;2.70;;;;;;;11.53;100.00;100165.63;4916939;29;20099;-80
2022/12/31 00:08:01;;;;;;;6.00;2.80;;;;;;;11.54;100.00;100167.31;4917316;29;20032;-80
2022/12/31 00:10:27;;;;;;;4.50;2.55;;;;;;;11.55;100.00;100158.91;4920068;29;20039;-80
2022/12/31 00:12:53;;;;;;;3.00;2.40;;;;;;;11.56;100.00;100173.34;4919125;29;20032;-79
2022/12/31 00:15:18;;;;;;;5.23;2.70;;;;;;;11.60;100.00;100174.50;4920848;29;20032;-79
2022/12/31 00:17:43;;;;;;;5.33;2.53;;;;;;;11.61;100.00;100178.88;4903256;29;20036;-79
2022/12/31 00:20:09;;;;;;;4.38;2.78;;;;;;;11.61;100.00;100173.44;4903111;29;20071;-79
2022/12/31 00:22:35;;;;;;;3.27;2.40;;;;;;;11.60;100.00;100171.78;4918686;29;20048;-79
2022/12/31 00:25:00;;;;;;;7.47;2.77;;;;;;;11.61;100.00;100176.16;4887438;29;20059;-79
2022/12/31 00:27:29;;;;;;;7.88;3.20;;;;;;;11.65;100.00;100181.94;4918741;29;20036;-79
2022/12/31 00:29:55;;;;;;;6.20;2.97;;;;;;;11.64;100.00;100175.69;4920086;29;20037;-79
2022/12/31 00:32:20;;;;;;;4.37;2.60;;;;;;;11.65;100.00;100160.19;4919220;29;20416;-79
2022/12/31 00:34:45;;;;;;;8.13;4.82;;;;;;;11.64;100.00;100153.94;4902626;29;20292;-79
2022/12/31 00:37:11;;;;;;;4.47;3.03;;;;;;;11.67;100.00;100158.06;4919917;29;20124;-80
2022/12/31 00:39:36;;;;;;;7.03;3.00;;;;;;;11.66;100.00;100151.81;4918249;29;20036;-80
2022/12/31 00:42:01;;;;;;;4.10;2.73;;;;;;;11.67;100.00;100144.50;4919565;29;20119;-80
2022/12/31 00:44:27;;;;;;;5.37;2.93;;;;;;;11.67;100.00;100158.88;4886872;29;20047;-79
2022/12/31 00:46:52;;;;;;;4.90;2.47;;;;;;;11.65;100.00;100193.63;4919733;29;20087;-79
2022/12/31 00:49:18;;;;;;;2.07;1.73;;;;;;;11.66;100.00;100150.97;4902700;29;20457;-79
2022/12/31 00:51:45;;;;;;;2.43;1.77;;;;;;;11.63;100.00;100155.00;4902549;29;20028;-79
2022/12/31 00:54:11;;;;;;;5.55;2.20;;;;;;;11.61;100.00;100150.88;4918305;29;20037;-79
2022/12/31 00:56:37;;;;;;;2.17;1.53;;;;;;;11.57;100.00;100147.81;4917956;29;20374;-79
2022/12/31 00:59:03;;;;;;;5.60;1.83;;;;;;;11.57;100.00;100145.09;4919529;29;20296;-79
2022/12/31 01:01:33;;;;;;;4.05;1.90;;;;;;;11.59;100.00;100142.97;4918481;29;20103;-80
2022/12/31 01:04:03;;;;;;;2.63;1.80;;;;;;;11.56;100.00;100138.03;4918795;29;20062;-80
2022/12/31 01:06:29;;;;;;;2.55;1.48;;;;;;;11.58;100.00;100138.59;4919451;29;20039;-79
2022/12/31 01:08:55;;;;;;;3.25;1.60;;;;;;;11.58;100.00;100153.00;4918402;29;20092;-80
2022/12/31 01:11:22;;;;;;;4.10;1.52;;;;;;;11.57;100.00;100135.06;4919363;29;20032;-79
2022/12/31 01:13:52;;;;;;;3.22;1.30;;;;;;;11.55;100.00;100126.31;4901939;29;20039;-79
2022/12/31 01:16:21;;;;;;;2.38;1.10;;;;;;;11.55;100.00;100129.03;4919297;29;20476;-79
2022/12/31 01:18:46;;;;;;;2.45;1.17;;;;;;;11.51;100.00;100125.13;4918602;29;20059;-80
2022/12/31 01:21:13;;;;;;;1.50;1.20;;;;;;;11.47;100.00;100121.25;4918000;29;20503;-80
2022/12/31 01:23:38;;;;;;;4.00;1.15;;;;;;;11.45;100.00;100125.28;4919058;29;20355;-80
2022/12/31 01:26:06;;;;;;;2.78;1.10;;;;;;;11.41;100.00;100141.22;4918063;29;20493;-80
2022/12/31 01:28:32;;;;;;;2.63;0.98;;;;;;;11.38;100.00;100131.66;4919252;29;20067;-79
2022/12/31 01:30:58;;;;;;;2.90;0.90;;;;;;;11.37;100.00;100137.34;4917411;29;20470;-80
2022/12/31 01:33:23;;;;;;;2.03;0.90;;;;;;;11.34;100.00;100145.97;4902668;29;20139;-80
2022/12/31 01:35:48;;;;;;;1.73;0.82;;;;;;;11.29;100.00;100141.22;4901939;29;20052;-79
2022/12/31 01:38:14;;;;;;;3.03;0.90;;;;;;;11.31;100.00;100140.97;4917347;29;20478;-79
2022/12/31 01:40:40;;;;;;;2.37;0.80;;;;;;;11.29;100.00;100140.41;4919088;29;20557;-79
2022/12/31 01:43:18;;;;;;;3.72;0.77;;;;;;;11.28;100.00;100155.03;4917117;29;20171;-79
2022/12/31 01:45:49;;;;;;;1.30;0.80;;;;;;;11.27;100.00;100153.41;4917278;29;20499;-79
2022/12/31 01:48:23;;;;;;;2.22;0.95;;;;;;;11.27;100.00;100167.81;4917351;29;20028;-79
2022/12/31 01:50:49;;;;;;;1.80;0.70;;;;;;;11.28;100.00;100183.03;4918864;29;20350;-79
2022/12/31 01:53:17;;;;;;;1.83;0.60;;;;;;;11.30;100.00;100210.78;4918538;29;20047;-79
2022/12/31 01:55:42;;;;;;;1.10;0.68;;;;;;;11.32;100.00;100224.94;4901384;29;20500;-79
2022/12/31 01:58:13;;;;;;;1.53;0.80;;;;;;;11.31;100.00;100200.72;4918234;29;20040;-78
2022/12/31 02:00:38;;;;;;;1.60;0.88;;;;;;;11.31;100.00;100182.56;4918438;29;20028;-80
2022/12/31 02:03:06;;;;;;;1.70;0.90;;;;;;;11.31;100.00;100154.56;4901277;29;20055;-80
2022/12/31 02:05:41;;;;;;;2.60;1.00;;;;;;;11.30;100.00;100163.78;4918322;29;20043;-80
2022/12/31 02:08:08;;;;;;;1.30;0.95;;;;;;;11.30;100.00;100166.50;4918376;29;20089;-79
2022/12/31 02:10:34;;;;;;;2.85;1.30;;;;;;;11.31;100.00;100176.28;4901368;29;20048;-80
2022/12/31 02:13:00;;;;;;;2.40;1.30;;;;;;;11.30;100.00;100163.78;4918744;29;20122;-80
2022/12/31 02:15:50;;;;;;;2.77;1.50;;;;;;;11.28;100.00;100174.91;4917225;29;20096;-80
2022/12/31 02:18:33;;;;;;;2.10;1.40;;;;;;;11.31;100.00;100196.16;4918044;29;20038;-80
2022/12/31 02:21:08;;;;;;;3.08;1.45;;;;;;;11.32;100.00;100191.53;4918179;29;20040;-80
2022/12/31 02:23:49;;;;;;;3.53;1.63;;;;;;;11.34;100.00;100200.28;4918149;29;20067;-81
2022/12/31 02:26:56;;;;;;;3.45;1.92;;;;;;;11.33;100.00;100207.59;4918252;29;20028;-80
2022/12/31 02:29:59;;;;;;;3.63;1.93;;;;;;;11.36;100.00;100228.03;4871357;29;20054;-80
2022/12/31 02:32:36;;;;;;;2.83;2.13;;;;;;;11.35;100.00;100216.34;4915897;29;20547;-80
2022/12/31 02:35:13;;;;;;;3.10;2.13;;;;;;;11.35;100.00;100210.91;4918463;29;20036;-80
2022/12/31 02:37:42;;;;;;;3.60;2.15;;;;;;;11.35;100.00;100212.78;4917818;29;20088;-79
2022/12/31 02:40:13;;;;;;;5.35;2.38;;;;;;;11.35;100.00;100224.50;4917797;29;20028;-80
2022/12/31 02:42:38;;;;;;;5.27;2.60;;;;;;;11.35;100.00;100226.34;4917514;29;20032;-79
2022/12/31 02:45:04;;;;;;;9.90;2.90;;;;;;;11.35;100.00;100227.22;4917732;29;20392;-79
2022/12/31 02:47:30;;;;;;;5.77;2.57;;;;;;;11.34;100.00;100233.69;4917659;29;20039;-79
2022/12/31 02:50:20;;;;;;;7.32;3.10;;;;;;;11.33;100.00;100229.31;4916266;29;20473;-79
2022/12/31 02:53:04;;;;;;;6.63;3.40;;;;;;;11.34;100.00;100213.88;4916315;29;20036;-79
2022/12/31 02:55:51;;;;;;;8.40;3.22;;;;;;;11.32;100.00;100211.34;4916858;29;20039;-79
2022/12/31 03:02:12;;;;;;;7.35;3.15;;;;;;;11.32;100.00;100205.09;4916573;29;20453;-79
2022/12/31 03:04:30;;;;;;;7.80;2.58;;;;;;;11.27;100.00;100211.25;4918118;29;20047;-79
2022/12/31 03:06:51;;;;;;;4.78;2.60;;;;;;;11.21;100.00;100202.16;4917364;29;20052;-79
2022/12/31 03:09:16;;;;;;;4.67;2.90;;;;;;;11.19;100.00;100200.72;4917566;29;20036;-79
2022/12/31 03:14:30;;;;;;;6.97;2.90;;;;;;;11.15;100.00;100191.41;4881577;29;20044;-79
2022/12/31 03:16:56;;;;;;;5.15;2.80;;;;;;;11.14;100.00;100190.56;4916204;29;20103;-79
2022/12/31 03:22:38;;;;;;;7.70;2.60;;;;;;;11.15;100.00;100186.81;4917989;29;20043;-78
2022/12/31 03:25:36;;;;;;;4.20;2.07;;;;;;;11.16;100.00;100182.19;4911710;29;20056;-80
2022/12/31 03:28:05;;;;;;;3.65;1.77;;;;;;;11.15;100.00;100180.56;4916147;29;20035;-79
2022/12/31 03:30:31;;;;;;;3.20;1.83;;;;;;;11.14;100.00;100185.16;4917210;29;20032;-79
2022/12/31 03:32:57;;;;;;;5.50;2.17;;;;;;;11.13;100.00;100175.38;4915960;29;20032;-79
2022/12/31 03:35:25;;;;;;;4.85;2.10;;;;;;;11.13;100.00;100180.78;4917531;29;20102;-79
2022/12/31 03:37:51;;;;;;;6.17;2.10;;;;;;;11.14;100.00;100165.31;4915905;29;20036;-80
2022/12/31 03:40:19;;;;;;;6.65;2.15;;;;;;;11.11;100.00;100158.47;4915490;29;20508;-79
2022/12/31 03:42:44;;;;;;;4.82;2.20;;;;;;;11.10;100.00;100153.28;4917017;29;20046;-79
2022/12/31 03:45:11;;;;;;;4.00;2.10;;;;;;;11.09;100.00;100152.47;4920871;29;20036;-79
2022/12/31 03:47:37;;;;;;;5.65;2.10;;;;;;;11.11;100.00;100165.78;4903604;29;20063;-80
2022/12/31 03:50:04;;;;;;;5.35;2.10;;;;;;;11.09;100.00;100149.75;4919600;29;20064;-79
2022/12/31 03:52:29;;;;;;;4.73;1.90;;;;;;;11.09;100.00;100144.31;4919171;29;20066;-79
2022/12/31 03:54:55;;;;;;;4.50;2.17;;;;;;;11.09;100.00;100147.03;4920915;29;20457;-79
2022/12/31 03:57:20;;;;;;;2.93;1.60;;;;;;;11.08;100.00;100142.66;4919427;29;20039;-79
2022/12/31 03:59:46;;;;;;;4.30;1.83;;;;;;;11.08;100.00;100137.22;4903526;29;20492;-79
2022/12/31 04:02:11;;;;;;;3.07;1.53;;;;;;;11.12;100.00;100143.03;4903534;29;20036;-79
2022/12/31 04:04:36;;;;;;;2.93;1.50;;;;;;;11.10;100.00;100137.84;4919349;29;20315;-80
2022/12/31 04:07:02;;;;;;;2.47;1.40;;;;;;;11.12;100.00;100143.03;4903527;29;20378;-79
2022/12/31 04:09:27;;;;;;;1.90;0.97;;;;;;;11.13;100.00;100140.06;4918892;29;20099;-80
2022/12/31 04:11:53;;;;;;;1.80;1.00;;;;;;;11.19;100.00;100141.84;4919508;29;20088;-79
2022/12/31 04:14:18;;;;;;;4.32;1.02;;;;;;;11.24;100.00;100133.78;4919065;29;20381;-79
2022/12/31 04:16:44;;;;;;;3.30;1.13;;;;;;;11.35;100.00;100139.44;4903710;29;20067;-79
2022/12/31 04:19:11;;;;;;;4.07;1.30;;;;;;;11.40;100.00;100134.97;4920692;29;20032;-80
2022/12/31 04:21:36;;;;;;;1.90;1.00;;;;;;;11.48;100.00;100128.31;4903743;29;20130;-79
2022/12/31 04:24:02;;;;;;;6.22;1.40;;;;;;;11.58;100.00;100128.53;4919135;29;20139;-79
2022/12/31 04:26:27;;;;;;;3.63;1.33;;;;;;;11.69;100.00;100136.91;4887676;29;20473;-79
2022/12/31 04:28:53;;;;;;;4.13;1.30;;;;;;;11.73;100.00;100117.16;4918865;29;20036;-79
2022/12/31 04:31:18;;;;;;;7.17;1.50;;;;;;;11.87;100.00;100122.31;4887914;29;20036;-79
2022/12/31 04:33:44;;;;;;;6.53;1.30;;;;;;;11.95;100.00;100116.53;4920139;29;20055;-80
2022/12/31 04:36:09;;;;;;;4.63;1.20;;;;;;;12.01;100.00;100112.03;4903386;29;20377;-79
2022/12/31 04:38:35;;;;;;;7.80;1.58;;;;;;;12.07;100.00;100105.63;4887790;29;20040;-80
2022/12/31 04:41:21;;;;;;;4.27;1.40;;;;;;;12.19;100.00;100102.84;4902797;29;20502;-80
2022/12/31 04:43:52;;;;;;;5.40;1.20;;;;;;;12.26;100.00;100128.00;4918834;29;20473;-79
2022/12/31 04:46:26;;;;;;;5.83;1.43;;;;;;;12.33;100.00;100149.59;4920153;29;20148;-79
2022/12/31 04:48:52;;;;;;;6.47;1.30;;;;;;;12.38;100.00;100149.69;4919750;29;20028;-80
2022/12/31 04:51:17;;;;;;;8.65;1.92;;;;;;;12.40;100.00;100151.09;4918682;29;20401;-79
2022/12/31 04:53:43;;;;;;;5.40;1.33;;;;;;;12.42;100.00;100129.09;4919419;29;20036;-80
2022/12/31 04:56:09;;;;;;;7.68;1.77;;;;;;;12.44;100.00;100160.41;4919685;29;20311;-80
2022/12/31 04:58:36;;;;;;;6.67;1.30;;;;;;;12.45;100.00;100169.41;4918137;29;20024;-79
2022/12/31 05:01:01;;;;;;;6.60;1.38;;;;;;;12.49;100.00;100162.41;4919487;29;20118;-79
2022/12/31 05:03:27;;;;;;;6.40;1.40;;;;;;;12.50;100.00;100171.41;4918042;29;20111;-79
2022/12/31 05:05:58;;;;;;;5.87;1.20;;;;;;;12.55;100.00;100166.88;4918252;29;20190;-79
2022/12/31 05:08:24;;;;;;;3.85;1.25;;;;;;;12.57;100.00;100161.19;4919477;29;20040;-79
2022/12/31 05:10:49;;;;;;;9.00;1.40;;;;;;;12.57;100.00;100161.19;4902268;29;20039;-79
2022/12/31 05:13:15;;;;;;;2.37;1.20;;;;;;;12.56;100.00;100148.66;4918619;29;20117;-79
2022/12/31 05:15:40;;;;;;;3.43;1.10;;;;;;;12.58;100.00;100155.50;4918277;29;20163;-78
2022/12/31 05:18:07;;;;;;;5.63;1.10;;;;;;;12.59;100.00;100178.09;4918568;29;20617;-79
2022/12/31 05:20:33;;;;;;;5.07;1.00;;;;;;;12.61;100.00;100167.81;4917650;29;20096;-79
2022/12/31 05:22:58;;;;;;;5.93;1.10;;;;;;;12.66;100.00;100165.16;4917405;29;20131;-79
2022/12/31 05:25:24;;;;;;;3.75;1.10;;;;;;;12.70;100.00;100162.78;4919669;29;20109;-79
2022/12/31 05:27:49;;;;;;;4.30;1.20;;;;;;;12.67;100.00;100164.09;4917949;29;20028;-79
2022/12/31 05:30:17;;;;;;;4.00;1.30;;;;;;;12.70;100.00;100198.16;4901579;29;20511;-79
2022/12/31 05:32:42;;;;;;;4.32;0.80;;;;;;;12.72;100.00;100187.84;4917565;29;20035;-79
2022/12/31 05:35:08;;;;;;;6.50;1.23;;;;;;;12.70;100.00;100196.25;4901700;29;20477;-79
2022/12/31 05:37:34;;;;;;;2.55;0.70;;;;;;;12.73;100.00;100208.56;4917683;29;20092;-79
2022/12/31 05:40:00;;;;;;;1.97;0.70;;;;;;;12.74;100.00;100182.97;4901877;29;20040;-78
2022/12/31 05:42:26;;;;;;;5.18;0.90;;;;;;;12.74;100.00;100185.69;4917685;29;20032;-79
2022/12/31 05:44:51;;;;;;;4.43;0.90;;;;;;;12.73;100.00;100206.66;4917384;29;20039;-78
2022/12/31 05:47:17;;;;;;;3.20;0.80;;;;;;;12.74;100.00;100200.13;4918369;29;20038;-79
2022/12/31 05:49:42;;;;;;;2.67;0.73;;;;;;;12.74;100.00;100202.88;4917698;29;20092;-79
2022/12/31 05:52:08;;;;;;;4.93;0.90;;;;;;;12.77;100.00;100179.75;4918661;29;20479;-79
2022/12/31 05:54:33;;;;;;;4.20;0.80;;;;;;;12.74;100.00;100189.25;4918509;29;20040;-79
2022/12/31 05:56:58;;;;;;;5.80;0.75;;;;;;;12.76;100.00;100206.16;4901489;29;20043;-79
2022/12/31 05:59:24;;;;;;;4.87;0.77;;;;;;;12.75;100.00;100174.56;4917420;29;20063;-80
2022/12/31 06:01:49;;;;;;;3.03;0.70;;;;;;;12.76;100.00;100165.31;4917128;29;20388;-80
2022/12/31 06:04:16;;;;;;;3.78;0.77;;;;;;;12.74;100.00;100191.13;4918325;29;20112;-80
2022/12/31 06:06:42;;;;;;;6.57;1.00;;;;;;;12.75;100.00;100214.56;4917285;29;20441;-80
2022/12/31 06:09:07;;;;;;;3.30;0.70;;;;;;;12.77;100.00;100210.53;4916907;29;20485;-79
2022/12/31 06:11:33;;;;;;;4.60;0.70;;;;;;;12.83;100.00;100222.34;4918019;29;20515;-79
2022/12/31 06:13:58;;;;;;;6.73;0.90;;;;;;;12.84;100.00;100215.00;4901160;29;20465;-80
2022/12/31 06:16:24;;;;;;;2.93;0.63;;;;;;;12.94;100.00;100207.81;4917592;29;20040;-79
2022/12/31 06:18:50;;;;;;;3.77;0.80;;;;;;;12.98;100.00;100240.84;4916682;29;20367;-80
2022/12/31 06:21:19;;;;;;;3.70;0.70;;;;;;;12.99;100.00;100216.09;4918099;29;20032;-80
2022/12/31 06:23:45;;;;;;;4.20;0.65;;;;;;;13.03;100.00;100221.84;4917537;29;20055;-80
2022/12/31 06:26:11;;;;;;;2.75;0.50;;;;;;;13.09;100.00;100233.66;4916895;29;20044;-80
2022/12/31 06:28:36;;;;;;;2.10;0.50;;;;;;;13.16;100.00;100247.94;4916616;29;20095;-79
2022/12/31 06:31:04;;;;;;;1.33;0.30;;;;;;;13.24;100.00;100223.03;4900836;29;20032;-80
2022/12/31 06:33:30;;;;;;;2.10;0.55;;;;;;;13.28;100.00;100237.78;4916301;29;20039;-79
2022/12/31 06:36:00;;;;;;;3.40;0.40;;;;;;;13.40;100.00;100226.00;4916613;29;20036;-79
2022/12/31 06:38:27;;;;;;;2.97;0.65;;;;;;;13.50;100.00;100216.06;4917454;29;20043;-80
2022/12/31 06:40:52;;;;;;;3.07;0.47;;;;;;;13.64;100.00;100216.56;4918087;29;20036;-80
2022/12/31 06:43:18;;;;;;;1.73;0.50;;;;;;;13.66;100.00;100224.47;4918043;29;20036;-80
2022/12/31 06:45:44;;;;;;;3.57;0.70;;;;;;;13.72;100.00;100222.66;4916421;29;20079;-80
2022/12/31 06:48:09;;;;;;;4.45;0.63;;;;;;;13.69;100.00;100256.69;4917978;29;20548;-80
2022/12/31 06:50:35;;;;;;;2.17;0.63;;;;;;;13.78;100.00;100236.09;4917565;29;20028;-80
2022/12/31 06:53:01;;;;;;;2.33;0.68;;;;;;;13.94;100.00;100239.03;4917387;29;20032;-79
2022/12/31 06:55:27;;;;;;;1.43;0.40;;;;;;;13.95;100.00;100232.50;4917906;29;20512;-80
2022/12/31 06:57:52;;;;;;;3.13;0.90;;;;;;;13.95;100.00;100225.16;4900850;29;20047;-80
2022/12/31 07:00:19;;;;;;;3.47;0.50;;;;;;;14.00;100.00;100232.56;4917428;29;20033;-81
2022/12/31 07:03:19;;;;;;;2.13;0.43;;;;;;;14.08;100.00;100226.66;4916321;29;20119;-80
2022/12/31 07:05:56;;;;;;;3.63;0.70;;;;;;;14.12;100.00;100225.06;4917823;29;20032;-80
2022/12/31 07:08:36;;;;;;;2.77;0.60;;;;;;;14.20;100.00;100227.38;4917042;29;20040;-80
2022/12/31 07:11:24;;;;;;;2.97;0.60;;;;;;;14.24;100.00;100229.59;4917274;29;20042;-80
2022/12/31 07:13:56;;;;;;;2.83;0.50;;;;;;;14.17;100.00;100227.88;4916210;29;20040;-80
2022/12/31 07:16:40;;;;;;;4.97;0.60;;;;;;;14.09;100.00;100228.31;4917612;29;20492;-79
2022/12/31 07:19:31;;;;;;;2.22;0.50;;;;;;;14.04;100.00;100242.72;4921182;29;20107;-80
2022/12/31 07:21:58;;;;;;;1.70;0.50;;;;;;;14.18;100.00;100236.88;4921330;29;20056;-79
2022/12/31 07:24:24;;;;;;;2.80;0.50;;;;;;;14.25;100.00;100229.31;4919828;29;20067;-80
2022/12/31 07:26:52;;;;;;;3.88;0.57;;;;;;;14.28;100.00;100239.72;4904271;29;20071;-79
2022/12/31 07:29:26;;;;;;;4.30;0.73;;;;;;;14.31;100.00;100244.69;4919782;29;20044;-80
2022/12/31 07:32:09;;;;;;;2.25;0.60;;;;;;;14.39;100.00;100237.94;4920047;29;20071;-79
2022/12/31 07:34:47;;;;;;;4.10;0.60;;;;;;;14.38;100.00;100247.22;4919755;29;20039;-79
2022/12/31 07:37:29;;;;;;;3.97;0.60;;;;;;;14.38;100.00;100239.84;4920817;29;20382;-80
2022/12/31 07:40:02;;;;;;;2.08;0.65;;;;;;;14.35;100.00;100247.69;4921450;29;20032;-80
2022/12/31 07:42:33;;;;;;;2.80;1.05;;;;;;;14.36;100.00;100222.91;4919990;29;20032;-80
2022/12/31 07:45:18;;;;;;;4.68;0.63;;;;;;;14.28;100.00;100241.63;4920442;29;20352;-80
2022/12/31 07:47:43;;;;;;;3.07;0.60;;;;;;;14.21;100.00;100248.09;4920639;29;20059;-80
2022/12/31 07:50:17;;;;;;;2.80;0.52;;;;;;;14.01;100.00;100264.19;4903864;29;20075;-79
2022/12/31 07:52:43;;;;;;;2.83;0.90;;;;;;;13.78;100.00;100248.91;4919420;29;20119;-80
2022/12/31 07:55:09;;;;;;;3.73;0.77;;;;;;;13.62;100.00;100261.50;4920924;29;20060;-80
2022/12/31 07:57:46;;;;;;;1.85;0.60;;;;;;;13.46;100.00;100236.75;4919317;29;20060;-80
2022/12/31 08:00:14;;;;;;;2.60;0.80;;;;;;;13.46;100.00;100260.44;4920851;29;20036;-80
2022/12/31 08:02:57;;;;;;;2.03;0.60;;;;;;;13.46;100.00;100280.34;4904393;29;20051;-81
2022/12/31 08:05:34;;;;;;;2.90;0.70;;;;;;;13.53;100.00;100265.72;4919507;29;20062;-81
2022/12/31 08:08:27;;;;;;;6.57;0.80;;;;;;;13.56;100.00;100265.22;4918968;29;20076;-80
2022/12/31 08:11:15;;;;;;;3.85;0.95;;;;;;;13.41;100.00;100299.31;4919434;29;20441;-80
2022/12/31 08:13:41;;;;;;;4.07;1.13;;;;;;;13.32;100.00;100309.78;4920939;29;20035;-79
2022/12/31 08:16:11;;;;;;;3.70;0.93;;;;;;;13.26;100.00;100307.22;4920328;29;20095;-79
2022/12/31 08:18:36;;;;;;;3.33;0.80;;;;;;;13.14;100.00;100313.56;4920181;29;20032;-86
2022/12/31 08:21:05;;;;;;;3.28;0.77;;;;;;;13.19;100.00;100320.19;4918917;29;20104;-79
2022/12/31 08:23:43;;;;;;;4.13;0.70;;;;;;;13.19;100.00;100317.44;4919643;29;20028;-79
2022/12/31 08:26:22;;;;;;;4.47;1.00;;;;;;;13.15;100.00;100339.72;4920564;29;20103;-79
2022/12/31 08:28:57;;;;;;;5.47;0.68;;;;;;;13.13;100.00;100368.28;4918918;29;20060;-79
2022/12/31 08:31:54;;;;;;;2.03;0.55;;;;;;;13.24;100.00;100363.84;4920407;29;20036;-79
2022/12/31 08:34:20;;;;;;;4.60;0.73;;;;;;;13.33;100.00;100346.00;4918902;29;20038;-79
2022/12/31 08:37:12;;;;;;;4.03;0.83;;;;;;;13.41;100.00;100382.97;4919925;29;20095;-79
2022/12/31 08:40:22;;;;;;;2.92;0.68;;;;;;;13.42;100.00;100363.66;4918764;29;20073;-79
2022/12/31 08:43:05;;;;;;;2.85;0.70;;;;;;;13.37;100.00;100409.06;4827516;29;20030;-79
2022/12/31 08:45:36;;;;;;;3.70;0.80;;;;;;;13.24;100.00;100399.25;4918006;29;20056;-78
2022/12/31 08:48:20;;;;;;;2.53;0.77;;;;;;;13.15;100.00;100383.31;4919225;29;20030;-79
2022/12/31 08:50:46;;;;;;;3.70;0.90;;;;;;;13.13;100.00;100399.06;4918724;29;20032;-79
2022/12/31 08:53:11;;;;;;;1.33;0.70;;;;;;;13.14;100.00;100400.72;4902971;29;20095;-79
2022/12/31 08:55:37;;;;;;;2.87;0.57;;;;;;;13.17;100.00;100413.03;4918502;29;20442;-78
2022/12/31 08:58:05;;;;;;;5.10;0.70;;;;;;;13.20;100.00;100409.81;4919139;29;20028;-80
2022/12/31 09:00:32;;;;;;;3.63;0.68;;;;;;;13.26;100.00;100408.03;4919151;29;20028;-80
2022/12/31 09:03:03;;;;;;;3.43;1.20;;;;;;;13.21;100.00;100416.09;4902885;29;20048;-81
2022/12/31 09:05:57;;;;;;;1.80;0.90;;;;;;;13.19;100.00;100431.84;4919472;29;20036;-80
2022/12/31 09:08:44;;;;;;;3.92;0.70;;;;;;;13.12;100.00;100440.16;4915558;29;20040;-81
2022/12/31 09:11:21;;;;;;;3.30;0.82;;;;;;;13.11;100.00;100441.22;4918015;29;20028;-80
2022/12/31 09:14:18;;;;;;;2.35;0.52;;;;;;;13.10;100.00;100456.75;4918583;29;20071;-80
2022/12/31 09:16:58;;;;;;;1.83;0.73;;;;;;;13.14;100.00;100462.56;4919283;29;20572;-80
2022/12/31 09:19:23;;;;;;;4.40;0.80;;;;;;;13.04;100.00;100473.25;4919219;29;20036;-79
2022/12/31 09:21:49;;;;;;;3.90;0.90;;;;;;;12.97;100.00;100465.19;4918107;29;20136;-79
2022/12/31 09:24:15;;;;;;;5.75;1.23;;;;;;;12.96;100.00;100474.41;4901816;29;20079;-79
2022/12/31 09:27:04;;;;;;;5.55;1.15;;;;;;;12.91;100.00;100485.22;4918521;29;20036;-80
2022/12/31 09:29:30;;;;;;;6.03;1.13;;;;;;;12.90;100.00;100492.56;4917922;29;20039;-80
2022/12/31 09:32:07;;;;;;;5.07;1.00;;;;;;;12.89;100.00;100476.44;4917699;29;20389;-80
2022/12/31 09:34:47;;;;;;;5.17;1.10;;;;;;;12.89;100.00;100477.28;4919475;29;20272;-80
2022/12/31 09:37:16;;;;;;;8.52;1.33;;;;;;;12.87;100.00;100486.75;4918481;29;20028;-80
2022/12/31 09:39:44;;;;;;;3.83;1.10;;;;;;;12.86;100.00;100485.94;4918549;29;20036;-81
2022/12/31 09:42:43;;;;;;;4.75;1.60;;;;;;;12.86;100.00;100482.38;4918717;29;20067;-80
2022/12/31 09:45:53;;;;;;;4.93;1.70;;;;;;;12.87;100.00;100494.94;4917763;29;20035;-80
2022/12/31 09:48:40;;;;;;;6.43;1.07;;;;;;;12.90;100.00;100491.72;4917718;29;20067;-80
2022/12/31 09:51:11;;;;;;;5.70;1.00;;;;;;;12.93;100.00;100491.25;4917294;29;20063;-80
2022/12/31 09:54:02;;;;;;;2.80;1.08;;;;;;;12.93;100.00;100485.78;4917192;29;20071;-80
2022/12/31 09:56:46;;;;;;;4.30;0.90;;;;;;;12.99;100.00;100491.13;4917394;29;20032;-80
2022/12/31 09:59:23;;;;;;;6.60;1.15;;;;;;;13.03;100.00;100496.91;4918374;29;20040;-80
2022/12/31 10:02:01;;;;;;;3.77;0.77;;;;;;;13.08;100.00;100497.03;4916808;29;20040;-81
2022/12/31 10:04:51;;;;;;;5.85;1.50;;;;;;;13.14;100.00;100490.59;4918672;29;20036;-80
2022/12/31 10:07:26;;;;;;;5.35;0.80;;;;;;;13.18;100.00;100488.22;4918061;29;20032;-79
2022/12/31 10:10:12;;;;;;;6.32;1.15;;;;;;;13.27;100.00;100500.41;4916914;29;20062;-80
2022/12/31 10:13:02;;;;;;;3.70;1.05;;;;;;;13.24;100.00;100505.50;4916828;29;20032;-80
2022/12/31 10:15:49;;;;;;;4.77;1.17;;;;;;;13.32;100.00;100516.84;4918234;29;20029;-79
2022/12/31 10:18:28;;;;;;;3.42;0.90;;;;;;;13.32;100.00;100502.41;4917870;29;20099;-80
2022/12/31 10:21:11;;;;;;;7.57;1.55;;;;;;;13.31;100.00;100526.06;4916710;29;20032;-80
2022/12/31 10:23:48;;;;;;;3.05;0.85;;;;;;;13.35;100.00;100506.59;4916879;29;20039;-79
2022/12/31 10:26:40;;;;;;;4.05;1.00;;;;;;;13.30;100.00;100499.06;4918485;29;20048;-80
2022/12/31 10:29:28;;;;;;;5.50;1.03;;;;;;;13.32;100.00;100505.13;4916308;29;20039;-80
2022/12/31 10:32:07;;;;;;;5.72;1.40;;;;;;;13.34;100.00;100481.22;4916482;29;20067;-80
2022/12/31 10:34:54;;;;;;;7.95;1.52;;;;;;;13.38;100.00;100476.94;4917883;29;20083;-80
2022/12/31 10:37:30;;;;;;;9.95;1.17;;;;;;;13.40;100.00;100482.13;4917985;29;20453;-80
2022/12/31 10:40:18;;;;;;;5.15;1.08;;;;;;;13.43;100.00;100468.84;4918433;29;20036;-80
2022/12/31 10:42:50;;;;;;;5.90;1.30;;;;;;;13.51;100.00;100484.81;4903586;29;20040;-80
2022/12/31 10:45:46;;;;;;;6.47;1.73;;;;;;;13.61;100.00;100502.44;4916267;29;20036;-79
2022/12/31 10:48:27;;;;;;;9.35;1.60;;;;;;;13.73;100.00;100477.84;4917704;29;20047;-79
2022/12/31 10:51:29;;;;;;;5.35;1.20;;;;;;;13.80;100.00;100481.22;4915766;29;20047;-80
2022/12/31 10:54:42;;;;;;;6.50;1.27;;;;;;;13.85;100.00;100514.06;4917142;29;20119;-80
2022/12/31 10:58:05;;;;;;;8.50;1.17;;;;;;;13.97;100.00;100492.19;4917564;29;20128;-80
2022/12/31 11:00:47;;;;;;;3.50;1.23;;;;;;;14.06;100.00;100487.16;4825373;29;20037;-81
2022/12/31 11:03:30;;;;;;;3.00;1.02;;;;;;;14.10;100.00;100491.84;4825780;29;20042;-80
2022/12/31 11:06:17;;;;;;;3.75;1.23;;;;;;;14.14;100.00;100509.38;4893500;29;20044;-80
2022/12/31 11:08:51;;;;;;;3.80;0.95;;;;;;;14.24;100.00;100500.53;4916720;29;20471;-81
2022/12/31 11:11:19;;;;;;;4.33;0.73;;;;;;;14.28;100.00;100515.31;4915769;29;20074;-81
2022/12/31 11:14:08;;;;;;;4.97;0.85;;;;;;;14.34;100.00;100532.63;4916528;29;20028;-80
2022/12/31 11:16:42;;;;;;;5.60;0.98;;;;;;;14.37;100.00;100522.00;4915978;29;20091;-79
2022/12/31 11:19:41;;;;;;;5.45;1.27;;;;;;;14.39;100.00;100519.88;4917301;29;20028;-80
2022/12/31 11:22:15;;;;;;;4.57;0.80;;;;;;;14.46;100.00;100521.63;4917028;29;20115;-79
2022/12/31 11:25:27;;;;;;;6.13;1.37;;;;;;;14.47;100.00;100485.88;4917347;29;20060;-80
2022/12/31 11:28:11;;;;;;;4.15;0.90;;;;;;;14.54;100.00;100504.78;4877242;29;20108;-79
2022/12/31 11:30:58;;;;;;;7.07;1.33;;;;;;;14.52;100.00;100515.97;4877509;29;20454;-79
2022/12/31 11:33:29;;;;;;;7.85;1.80;;;;;;;14.55;100.00;100531.84;4907747;29;20103;-81
2022/12/31 11:36:19;;;;;;;7.50;1.15;;;;;;;14.58;100.00;100514.13;4916843;29;20036;-81
2022/12/31 11:39:01;;;;;;;4.40;1.20;;;;;;;14.63;100.00;100514.25;4916800;29;20028;-79
2022/12/31 11:41:38;;;;;;;7.10;1.10;;;;;;;14.63;100.00;100521.59;4917467;29;20028;-80
2022/12/31 11:44:22;;;;;;;6.53;0.98;;;;;;;14.64;100.00;100531.47;4917069;29;20440;-81
2022/12/31 11:46:53;;;;;;;6.25;1.20;;;;;;;14.58;100.00;100511.41;4916952;29;20036;-79
2022/12/31 11:50:11;;;;;;;6.35;1.15;;;;;;;14.26;100.00;100517.50;4915654;29;20032;-81
2022/12/31 11:52:52;;;;;;;5.70;1.30;;;;;;;13.96;100.00;100515.88;4839587;29;20045;-84